sensor_id;sensor_type;location;lat;lon;timestamp;pressure;altitude;pressure_sealevel;temperature;humidity
23016;BME280;11674;52.428;13.584;2023-11-25T00:03:44;99675.91;;;-0.40;84.12
23016;BME280;11674;52.428;13.584;2023-11-25T00:08:51;99678.09;;;-0.42;84.10
23016;BME280;11674;52.428;13.584;2023-11-25T00:13:58;99691.25;;;-0.39;84.20
23016;BME280;11674;52.428;13.584;2023-11-25T00:19:05;99697.53;;;-0.39;83.90
23016;BME280;11674;52.428;13.584;2023-11-25T00:24:12;99702.22;;;-0.39;84.06
23016;BME280;11674;52.428;13.584;2023-11-25T00:29:19;99703.84;;;-0.38;83.83
23016;BME280;11674;52.428;13.584;2023-11-25T00:34:26;99711.25;;;-0.39;84.11
23016;BME280;11674;52.428;13.584;2023-11-25T00:39:33;99733.72;;;-0.37;83.98
23016;BME280;11674;52.428;13.584;2023-11-25T00:44:40;99736.72;;;-0.38;83.99
23016;BME280;11674;52.428;13.584;2023-11-25T00:49:49;99752.31;;;-0.39;83.93
23016;BME280;11674;52.428;13.584;2023-11-25T00:54:56;99755.34;;;-0.35;84.08
23016;BME280;11674;52.428;13.584;2023-11-25T01:00:03;99760.84;;;-0.35;84.20
23016;BME280;11674;52.428;13.584;2023-11-25T01:05:11;99770.16;;;-0.36;84.04
23016;BME280;11674;52.428;13.584;2023-11-25T01:10:18;99782.50;;;-0.34;84.04
23016;BME280;11674;52.428;13.584;2023-11-25T01:15:25;99787.97;;;-0.34;84.15
23016;BME280;11674;52.428;13.584;2023-11-25T01:20:32;99786.88;;;-0.33;83.78
23016;BME280;11674;52.428;13.584;2023-11-25T01:25:39;99791.00;;;-0.30;84.09
23016;BME280;11674;52.428;13.584;2023-11-25T01:30:47;99799.50;;;-0.32;83.88
23016;BME280;11674;52.428;13.584;2023-11-25T01:35:54;99809.09;;;-0.29;84.00
23016;BME280;11674;52.428;13.584;2023-11-25T01:41:02;99801.72;;;-0.24;84.11
23016;BME280;11674;52.428;13.584;2023-11-25T01:46:09;99817.34;;;-0.19;84.18
23016;BME280;11674;52.428;13.584;2023-11-25T01:51:16;99824.78;;;-0.15;83.99
23016;BME280;11674;52.428;13.584;2023-11-25T01:56:23;99824.22;;;-0.12;84.06
23016;BME280;11674;52.428;13.584;2023-11-25T02:01:30;99825.06;;;-0.11;83.84
23016;BME280;11674;52.428;13.584;2023-11-25T02:06:37;99826.44;;;-0.09;84.02
23016;BME280;11674;52.428;13.584;2023-11-25T02:11:59;99832.47;;;-0.07;83.87
23016;BME280;11674;52.428;13.584;2023-11-25T02:17:07;99839.06;;;-0.08;83.69
23016;BME280;11674;52.428;13.584;2023-11-25T02:22:14;99843.44;;;-0.07;83.92
23016;BME280;11674;52.428;13.584;2023-11-25T02:27:21;99841.00;;;-0.08;83.62
23016;BME280;11674;52.428;13.584;2023-11-25T02:32:28;99836.31;;;-0.08;83.83
23016;BME280;11674;52.428;13.584;2023-11-25T02:37:35;99844.81;;;-0.04;83.79
23016;BME280;11674;52.428;13.584;2023-11-25T02:42:45;99844.03;;;0.00;83.80
23016;BME280;11674;52.428;13.584;2023-11-25T02:47:52;99859.38;;;0.01;83.77
23016;BME280;11674;52.428;13.584;2023-11-25T02:52:59;99872.84;;;0.03;83.85
23016;BME280;11674;52.428;13.584;2023-11-25T02:58:06;99879.41;;;0.07;83.93
23016;BME280;11674;52.428;13.584;2023-11-25T03:03:15;99901.38;;;0.12;83.84
23016;BME280;11674;52.428;13.584;2023-11-25T03:08:23;99902.22;;;0.17;83.88
23016;BME280;11674;52.428;13.584;2023-11-25T03:13:30;99902.50;;;0.16;83.65
23016;BME280;11674;52.428;13.584;2023-11-25T03:18:39;99924.66;;;0.09;83.42
23016;BME280;11674;52.428;13.584;2023-11-25T03:23:47;99922.47;;;0.06;83.68
23016;BME280;11674;52.428;13.584;2023-11-25T03:28:54;99930.41;;;0.03;83.86
23016;BME280;11674;52.428;13.584;2023-11-25T03:34:08;99927.34;;;-0.01;83.63
23016;BME280;11674;52.428;13.584;2023-11-25T03:39:15;99945.75;;;0.04;83.94
23016;BME280;11674;52.428;13.584;2023-11-25T03:44:22;99936.44;;;0.05;83.65
23016;BME280;11674;52.428;13.584;2023-11-25T03:49:30;99951.78;;;0.06;83.79
23016;BME280;11674;52.428;13.584;2023-11-25T03:54:37;99946.56;;;0.04;83.99
23016;BME280;11674;52.428;13.584;2023-11-25T03:59:45;99950.69;;;0.07;84.17
23016;BME280;11674;52.428;13.584;2023-11-25T04:04:52;99961.13;;;0.10;84.16
23016;BME280;11674;52.428;13.584;2023-11-25T04:09:59;99961.41;;;0.08;84.01
23016;BME280;11674;52.428;13.584;2023-11-25T04:15:07;99959.50;;;0.09;83.93
23016;BME280;11674;52.428;13.584;2023-11-25T04:20:14;99961.13;;;0.10;84.22
23016;BME280;11674;52.428;13.584;2023-11-25T04:25:21;99971.00;;;0.11;84.18
23016;BME280;11674;52.428;13.584;2023-11-25T04:30:28;99980.31;;;0.10;84.09
23016;BME280;11674;52.428;13.584;2023-11-25T04:35:36;99988.00;;;0.08;84.02
23016;BME280;11674;52.428;13.584;2023-11-25T04:40:43;99989.66;;;0.09;84.24
23016;BME280;11674;52.428;13.584;2023-11-25T04:45:53;99986.34;;;0.12;84.33
23016;BME280;11674;52.428;13.584;2023-11-25T04:51:00;99984.47;;;0.12;84.40
23016;BME280;11674;52.428;13.584;2023-11-25T04:56:07;100001.75;;;0.18;84.25
23016;BME280;11674;52.428;13.584;2023-11-25T05:01:14;99996.56;;;0.16;84.24
23016;BME280;11674;52.428;13.584;2023-11-25T05:06:21;100003.44;;;0.19;84.33
23016;BME280;11674;52.428;13.584;2023-11-25T05:11:30;100004.53;;;0.23;84.48
23016;BME280;11674;52.428;13.584;2023-11-25T05:16:37;100018.25;;;0.28;84.30
23016;BME280;11674;52.428;13.584;2023-11-25T05:21:44;100027.06;;;0.30;84.19
23016;BME280;11674;52.428;13.584;2023-11-25T05:26:51;100036.91;;;0.26;84.06
23016;BME280;11674;52.428;13.584;2023-11-25T05:31:58;100044.59;;;0.24;84.24
23016;BME280;11674;52.428;13.584;2023-11-25T05:37:05;100041.00;;;0.23;84.19
23016;BME280;11674;52.428;13.584;2023-11-25T05:42:20;100049.50;;;0.22;84.06
23016;BME280;11674;52.428;13.584;2023-11-25T05:47:34;100056.88;;;0.16;84.05
23016;BME280;11674;52.428;13.584;2023-11-25T05:52:41;100056.00;;;0.11;83.97
23016;BME280;11674;52.428;13.584;2023-11-25T05:57:49;100066.41;;;0.09;84.05
23016;BME280;11674;52.428;13.584;2023-11-25T06:02:56;100066.94;;;0.06;84.20
23016;BME280;11674;52.428;13.584;2023-11-25T06:08:03;100070.47;;;0.01;84.24
23016;BME280;11674;52.428;13.584;2023-11-25T06:13:10;100075.13;;;0.01;84.12
23016;BME280;11674;52.428;13.584;2023-11-25T06:18:17;100079.19;;;-0.02;84.25
23016;BME280;11674;52.428;13.584;2023-11-25T06:23:24;100092.63;;;-0.05;84.08
23016;BME280;11674;52.428;13.584;2023-11-25T06:28:31;100088.22;;;-0.06;84.00
23016;BME280;11674;52.428;13.584;2023-11-25T06:33:39;100088.19;;;-0.11;83.98
23016;BME280;11674;52.428;13.584;2023-11-25T06:38:46;100095.50;;;-0.17;84.21
23016;BME280;11674;52.428;13.584;2023-11-25T06:43:53;100088.94;;;-0.21;83.95
23016;BME280;11674;52.428;13.584;2023-11-25T06:49:00;100089.91;;;-0.32;83.84
23016;BME280;11674;52.428;13.584;2023-11-25T06:54:08;100085.50;;;-0.33;84.09
23016;BME280;11674;52.428;13.584;2023-11-25T06:59:15;100083.56;;;-0.37;84.13
23016;BME280;11674;52.428;13.584;2023-11-25T07:04:22;100098.03;;;-0.42;83.88
23016;BME280;11674;52.428;13.584;2023-11-25T07:09:29;100097.19;;;-0.42;83.95
23016;BME280;11674;52.428;13.584;2023-11-25T07:14:38;100086.44;;;-0.49;83.87
23016;BME280;11674;52.428;13.584;2023-11-25T07:19:45;100096.84;;;-0.51;84.05
23016;BME280;11674;52.428;13.584;2023-11-25T07:24:52;100092.97;;;-0.55;84.11
23016;BME280;11674;52.428;13.584;2023-11-25T07:29:59;100090.81;;;-0.53;84.29
23016;BME280;11674;52.428;13.584;2023-11-25T07:35:07;100088.13;;;-0.48;84.37
23016;BME280;11674;52.428;13.584;2023-11-25T07:40:14;100094.47;;;-0.42;84.59
23016;BME280;11674;52.428;13.584;2023-11-25T07:45:21;100091.47;;;-0.41;84.58
23016;BME280;11674;52.428;13.584;2023-11-25T07:50:28;100091.22;;;-0.39;84.34
23016;BME280;11674;52.428;13.584;2023-11-25T07:55:35;100092.31;;;-0.40;84.52
23016;BME280;11674;52.428;13.584;2023-11-25T08:00:42;100099.16;;;-0.38;84.54
23016;BME280;11674;52.428;13.584;2023-11-25T08:05:49;100103.81;;;-0.38;84.55
23016;BME280;11674;52.428;13.584;2023-11-25T08:10:56;100109.59;;;-0.35;84.72
23016;BME280;11674;52.428;13.584;2023-11-25T08:16:03;100108.25;;;-0.32;84.65
23016;BME280;11674;52.428;13.584;2023-11-25T08:21:10;100119.28;;;-0.27;84.74
23016;BME280;11674;52.428;13.584;2023-11-25T08:26:21;100115.44;;;-0.26;84.69
23016;BME280;11674;52.428;13.584;2023-11-25T08:31:28;100130.59;;;-0.19;84.67
23016;BME280;11674;52.428;13.584;2023-11-25T08:36:35;100134.22;;;-0.13;84.72
23016;BME280;11674;52.428;13.584;2023-11-25T08:41:42;100132.63;;;-0.04;84.87
23016;BME280;11674;52.428;13.584;2023-11-25T08:46:49;100125.59;;;0.05;84.88
23016;BME280;11674;52.428;13.584;2023-11-25T08:51:56;100123.50;;;0.17;84.60
23016;BME280;11674;52.428;13.584;2023-11-25T08:57:03;100112.06;;;0.25;84.87
23016;BME280;11674;52.428;13.584;2023-11-25T09:02:11;100118.19;;;0.37;84.93
23016;BME280;11674;52.428;13.584;2023-11-25T09:07:18;100130.34;;;0.51;84.95
23016;BME280;11674;52.428;13.584;2023-11-25T09:12:25;100140.38;;;0.77;85.63
23016;BME280;11674;52.428;13.584;2023-11-25T09:17:32;100127.91;;;1.06;85.25
23016;BME280;11674;52.428;13.584;2023-11-25T09:22:39;100145.59;;;1.30;85.19
23016;BME280;11674;52.428;13.584;2023-11-25T09:27:46;100140.09;;;1.35;84.33
23016;BME280;11674;52.428;13.584;2023-11-25T09:32:53;100136.00;;;1.37;84.58
23016;BME280;11674;52.428;13.584;2023-11-25T09:38:00;100137.41;;;1.45;84.81
23016;BME280;11674;52.428;13.584;2023-11-25T09:43:07;100130.53;;;1.42;84.63
23016;BME280;11674;52.428;13.584;2023-11-25T09:48:14;100126.66;;;1.38;84.67
23016;BME280;11674;52.428;13.584;2023-11-25T09:53:25;100118.13;;;1.35;84.19
23016;BME280;11674;52.428;13.584;2023-11-25T09:58:36;100097.22;;;1.24;84.44
23016;BME280;11674;52.428;13.584;2023-11-25T10:03:47;100098.94;;;1.45;85.13
23016;BME280;11674;52.428;13.584;2023-11-25T10:08:54;100090.19;;;1.63;84.66
23016;BME280;11674;52.428;13.584;2023-11-25T10:14:01;100085.75;;;1.57;84.21
23016;BME280;11674;52.428;13.584;2023-11-25T10:19:17;100087.16;;;1.69;84.39
23016;BME280;11674;52.428;13.584;2023-11-25T10:24:24;100088.81;;;1.70;84.26
23016;BME280;11674;52.428;13.584;2023-11-25T10:29:33;100081.69;;;1.79;84.62
23016;BME280;11674;52.428;13.584;2023-11-25T10:34:40;100084.97;;;1.91;84.50
23016;BME280;11674;52.428;13.584;2023-11-25T10:39:51;100071.78;;;1.98;84.50
23016;BME280;11674;52.428;13.584;2023-11-25T10:44:58;100062.97;;;1.91;84.66
23016;BME280;11674;52.428;13.584;2023-11-25T10:50:05;100066.56;;;1.92;84.46
23016;BME280;11674;52.428;13.584;2023-11-25T10:55:14;100072.06;;;2.02;85.00
23016;BME280;11674;52.428;13.584;2023-11-25T11:00:21;100060.50;;;2.15;84.76
23016;BME280;11674;52.428;13.584;2023-11-25T11:05:45;100056.66;;;2.16;84.74
23016;BME280;11674;52.428;13.584;2023-11-25T11:10:58;100059.97;;;2.13;84.46
23016;BME280;11674;52.428;13.584;2023-11-25T11:21:26;100056.94;;;1.99;84.39
23016;BME280;11674;52.428;13.584;2023-11-25T11:27:01;100051.44;;;1.99;84.35
23016;BME280;11674;52.428;13.584;2023-11-25T11:32:13;100055.81;;;1.90;84.13
23016;BME280;11674;52.428;13.584;2023-11-25T11:37:21;100052.28;;;1.90;84.56
23016;BME280;11674;52.428;13.584;2023-11-25T11:42:29;100050.59;;;1.89;84.53
23016;BME280;11674;52.428;13.584;2023-11-25T11:58:15;100048.16;;;1.87;84.57
23016;BME280;11674;52.428;13.584;2023-11-25T12:03:23;100037.41;;;1.91;84.46
23016;BME280;11674;52.428;13.584;2023-11-25T12:08:30;100033.56;;;1.87;84.36
23016;BME280;11674;52.428;13.584;2023-11-25T12:13:37;100025.03;;;1.83;84.63
23016;BME280;11674;52.428;13.584;2023-11-25T12:18:44;100021.75;;;1.76;84.58
23016;BME280;11674;52.428;13.584;2023-11-25T12:23:51;100029.16;;;1.76;84.83
23016;BME280;11674;52.428;13.584;2023-11-25T12:29:06;100030.81;;;1.72;84.84
23016;BME280;11674;52.428;13.584;2023-11-25T12:34:13;100037.97;;;1.68;84.80
23016;BME280;11674;52.428;13.584;2023-11-25T12:39:20;100038.50;;;1.55;84.10
23016;BME280;11674;52.428;13.584;2023-11-25T12:44:27;100037.38;;;1.36;84.30
23016;BME280;11674;52.428;13.584;2023-11-25T12:49:34;100039.81;;;1.27;84.56
23016;BME280;11674;52.428;13.584;2023-11-25T12:54:44;100035.41;;;1.26;84.41
23016;BME280;11674;52.428;13.584;2023-11-25T12:59:51;100031.28;;;1.19;84.16
23016;BME280;11674;52.428;13.584;2023-11-25T13:04:58;100029.34;;;1.09;84.31
23016;BME280;11674;52.428;13.584;2023-11-25T13:10:05;100030.69;;;1.02;84.53
23016;BME280;11674;52.428;13.584;2023-11-25T13:15:12;100033.44;;;1.02;84.54
23016;BME280;11674;52.428;13.584;2023-11-25T13:20:19;100035.63;;;1.00;84.57
23016;BME280;11674;52.428;13.584;2023-11-25T13:25:26;100030.41;;;1.03;84.86
23016;BME280;11674;52.428;13.584;2023-11-25T13:30:33;100034.53;;;1.01;84.65
23016;BME280;11674;52.428;13.584;2023-11-25T13:35:40;100035.03;;;0.93;83.87
23016;BME280;11674;52.428;13.584;2023-11-25T13:40:47;100032.84;;;0.90;84.63
23016;BME280;11674;52.428;13.584;2023-11-25T13:45:54;100022.97;;;0.89;84.64
23016;BME280;11674;52.428;13.584;2023-11-25T13:51:01;100027.38;;;1.00;84.70
23016;BME280;11674;52.428;13.584;2023-11-25T13:56:08;100031.25;;;0.99;84.29
23016;BME280;11674;52.428;13.584;2023-11-25T14:01:15;100030.09;;;0.90;83.95
23016;BME280;11674;52.428;13.584;2023-11-25T14:06:22;100033.66;;;0.90;84.34
23016;BME280;11674;52.428;13.584;2023-11-25T14:11:29;100030.38;;;0.88;84.38
23016;BME280;11674;52.428;13.584;2023-11-25T14:16:36;100036.66;;;0.84;84.41
23016;BME280;11674;52.428;13.584;2023-11-25T14:21:43;100037.78;;;0.88;84.86
23016;BME280;11674;52.428;13.584;2023-11-25T14:26:50;100048.50;;;0.94;84.93
23016;BME280;11674;52.428;13.584;2023-11-25T14:31:57;100060.84;;;0.92;84.83
23016;BME280;11674;52.428;13.584;2023-11-25T14:37:04;100060.03;;;0.91;84.86
23016;BME280;11674;52.428;13.584;2023-11-25T14:42:11;100079.28;;;0.96;84.86
23016;BME280;11674;52.428;13.584;2023-11-25T14:47:18;100077.56;;;0.90;84.78
23016;BME280;11674;52.428;13.584;2023-11-25T14:52:25;100095.44;;;0.88;84.96
23016;BME280;11674;52.428;13.584;2023-11-25T14:57:32;100091.31;;;0.90;84.97
23016;BME280;11674;52.428;13.584;2023-11-25T15:02:40;100098.72;;;0.85;84.62
23016;BME280;11674;52.428;13.584;2023-11-25T15:07:47;100108.50;;;0.71;84.39
23016;BME280;11674;52.428;13.584;2023-11-25T15:12:54;100104.91;;;0.65;84.83
23016;BME280;11674;52.428;13.584;2023-11-25T15:18:01;100105.41;;;0.57;84.75
23016;BME280;11674;52.428;13.584;2023-11-25T15:23:08;100101.00;;;0.56;84.81
23016;BME280;11674;52.428;13.584;2023-11-25T15:28:15;100112.53;;;0.53;84.86
23016;BME280;11674;52.428;13.584;2023-11-25T15:33:22;100125.97;;;0.55;84.89
23016;BME280;11674;52.428;13.584;2023-11-25T15:38:29;100112.81;;;0.57;84.95
23016;BME280;11674;52.428;13.584;2023-11-25T15:43:36;100115.28;;;0.58;85.13
23016;BME280;11674;52.428;13.584;2023-11-25T15:48:43;100116.41;;;0.62;84.90
23016;BME280;11674;52.428;13.584;2023-11-25T15:53:50;100114.28;;;0.69;84.94
23016;BME280;11674;52.428;13.584;2023-11-25T15:58:57;100128.25;;;0.68;84.61
23016;BME280;11674;52.428;13.584;2023-11-25T16:04:04;100149.38;;;0.67;84.84
23016;BME280;11674;52.428;13.584;2023-11-25T16:09:11;100146.09;;;0.65;84.72
23016;BME280;11674;52.428;13.584;2023-11-25T16:14:18;100148.00;;;0.65;84.78
23016;BME280;11674;52.428;13.584;2023-11-25T16:19:25;100164.72;;;0.63;84.98
23016;BME280;11674;52.428;13.584;2023-11-25T16:24:32;100167.47;;;0.63;84.86
23016;BME280;11674;52.428;13.584;2023-11-25T16:29:39;100166.09;;;0.66;85.04
23016;BME280;11674;52.428;13.584;2023-11-25T16:34:46;100182.91;;;0.69;85.17
23016;BME280;11674;52.428;13.584;2023-11-25T16:39:53;100187.31;;;0.75;85.07
23016;BME280;11674;52.428;13.584;2023-11-25T16:45:00;100179.66;;;0.77;84.83
23016;BME280;11674;52.428;13.584;2023-11-25T16:50:07;100186.50;;;0.75;84.91
23016;BME280;11674;52.428;13.584;2023-11-25T16:55:14;100191.97;;;0.75;84.83
23016;BME280;11674;52.428;13.584;2023-11-25T17:00:21;100199.94;;;0.76;85.01
23016;BME280;11674;52.428;13.584;2023-11-25T17:05:28;100208.44;;;0.75;84.76
23016;BME280;11674;52.428;13.584;2023-11-25T17:10:35;100212.31;;;0.79;85.02
23016;BME280;11674;52.428;13.584;2023-11-25T17:15:42;100222.75;;;0.82;84.95
23016;BME280;11674;52.428;13.584;2023-11-25T17:20:49;100228.56;;;0.85;84.95
23016;BME280;11674;52.428;13.584;2023-11-25T17:25:56;100235.47;;;0.88;84.71
23016;BME280;11674;52.428;13.584;2023-11-25T17:31:04;100244.25;;;0.90;84.76
23016;BME280;11674;52.428;13.584;2023-11-25T17:36:11;100236.53;;;0.87;84.61
23016;BME280;11674;52.428;13.584;2023-11-25T17:41:18;100254.34;;;0.84;85.04
23016;BME280;11674;52.428;13.584;2023-11-25T17:46:25;100257.97;;;0.90;84.89
23016;BME280;11674;52.428;13.584;2023-11-25T17:51:32;100267.34;;;0.94;84.93
23016;BME280;11674;52.428;13.584;2023-11-25T17:56:39;100276.97;;;0.96;85.01
23016;BME280;11674;52.428;13.584;2023-11-25T18:01:46;100280.28;;;0.98;84.78
23016;BME280;11674;52.428;13.584;2023-11-25T18:06:53;100304.16;;;0.98;84.98
23016;BME280;11674;52.428;13.584;2023-11-25T18:12:00;100317.50;;;0.84;84.40
23016;BME280;11674;52.428;13.584;2023-11-25T18:17:07;100316.25;;;0.65;84.30
23016;BME280;11674;52.428;13.584;2023-11-25T18:22:14;100322.72;;;0.54;84.86
23016;BME280;11674;52.428;13.584;2023-11-25T18:27:21;100328.16;;;0.49;84.72
23016;BME280;11674;52.428;13.584;2023-11-25T18:32:31;100336.66;;;0.48;85.04
23016;BME280;11674;52.428;13.584;2023-11-25T18:37:37;100339.94;;;0.50;85.13
23016;BME280;11674;52.428;13.584;2023-11-25T18:42:44;100353.66;;;0.50;85.24
23016;BME280;11674;52.428;13.584;2023-11-25T18:47:51;100361.16;;;0.54;85.18
23016;BME280;11674;52.428;13.584;2023-11-25T18:52:58;100374.03;;;0.54;85.04
23016;BME280;11674;52.428;13.584;2023-11-25T18:58:05;100369.06;;;0.51;84.99
23016;BME280;11674;52.428;13.584;2023-11-25T19:03:12;100373.97;;;0.49;84.80
23016;BME280;11674;52.428;13.584;2023-11-25T19:08:21;100373.91;;;0.44;85.11
23016;BME280;11674;52.428;13.584;2023-11-25T19:13:28;100388.66;;;0.38;84.97
23016;BME280;11674;52.428;13.584;2023-11-25T19:18:35;100388.03;;;0.31;84.58
23016;BME280;11674;52.428;13.584;2023-11-25T19:23:42;100395.88;;;0.22;84.64
23016;BME280;11674;52.428;13.584;2023-11-25T19:28:49;100396.31;;;0.14;84.64
23016;BME280;11674;52.428;13.584;2023-11-25T19:33:56;100411.91;;;0.09;84.43
23016;BME280;11674;52.428;13.584;2023-11-25T19:39:03;100424.94;;;0.02;84.68
23016;BME280;11674;52.428;13.584;2023-11-25T19:44:10;100420.47;;;-0.04;84.57
23016;BME280;11674;52.428;13.584;2023-11-25T19:49:17;100425.06;;;-0.10;84.38
23016;BME280;11674;52.428;13.584;2023-11-25T19:54:24;100430.72;;;-0.16;84.37
23016;BME280;11674;52.428;13.584;2023-11-25T19:59:31;100441.06;;;-0.23;84.36
23016;BME280;11674;52.428;13.584;2023-11-25T20:04:40;100443.72;;;-0.28;84.25
23016;BME280;11674;52.428;13.584;2023-11-25T20:09:47;100457.34;;;-0.33;84.18
23016;BME280;11674;52.428;13.584;2023-11-25T20:14:54;100464.63;;;-0.39;84.11
23016;BME280;11674;52.428;13.584;2023-11-25T20:20:01;100463.13;;;-0.46;84.07
23016;BME280;11674;52.428;13.584;2023-11-25T20:25:08;100476.75;;;-0.51;84.10
23016;BME280;11674;52.428;13.584;2023-11-25T20:30:15;100486.91;;;-0.52;84.14
23016;BME280;11674;52.428;13.584;2023-11-25T20:35:22;100491.88;;;-0.49;84.48
23016;BME280;11674;52.428;13.584;2023-11-25T20:40:29;100495.19;;;-0.47;84.57
23016;BME280;11674;52.428;13.584;2023-11-25T20:45:36;100491.72;;;-0.42;84.43
23016;BME280;11674;52.428;13.584;2023-11-25T20:50:43;100496.09;;;-0.41;84.44
23016;BME280;11674;52.428;13.584;2023-11-25T20:55:50;100497.50;;;-0.39;84.43
23016;BME280;11674;52.428;13.584;2023-11-25T21:00:57;100510.97;;;-0.37;84.35
23016;BME280;11674;52.428;13.584;2023-11-25T21:06:04;100506.06;;;-0.35;84.55
23016;BME280;11674;52.428;13.584;2023-11-25T21:11:11;100528.25;;;-0.37;84.31
23016;BME280;11674;52.428;13.584;2023-11-25T21:16:18;100533.22;;;-0.34;84.47
23016;BME280;11674;52.428;13.584;2023-11-25T21:21:25;100534.41;;;-0.30;84.48
23016;BME280;11674;52.428;13.584;2023-11-25T21:26:32;100543.53;;;-0.24;84.71
23016;BME280;11674;52.428;13.584;2023-11-25T21:31:39;100542.78;;;-0.20;84.49
23016;BME280;11674;52.428;13.584;2023-11-25T21:36:46;100547.19;;;-0.19;84.63
23016;BME280;11674;52.428;13.584;2023-11-25T21:41:53;100541.22;;;-0.16;84.42
23016;BME280;11674;52.428;13.584;2023-11-25T21:47:00;100542.34;;;-0.12;84.52
23016;BME280;11674;52.428;13.584;2023-11-25T21:52:07;100554.00;;;-0.05;84.52
23016;BME280;11674;52.428;13.584;2023-11-25T21:57:14;100565.28;;;-0.01;84.59
23016;BME280;11674;52.428;13.584;2023-11-25T22:02:21;100569.44;;;0.01;84.55
23016;BME280;11674;52.428;13.584;2023-11-25T22:07:28;100576.59;;;0.02;84.58
23016;BME280;11674;52.428;13.584;2023-11-25T22:12:36;100567.78;;;0.00;84.50
23016;BME280;11674;52.428;13.584;2023-11-25T22:17:43;100583.88;;;-0.03;84.54
23016;BME280;11674;52.428;13.584;2023-11-25T22:22:50;100587.94;;;-0.06;84.59
23016;BME280;11674;52.428;13.584;2023-11-25T22:27:57;100587.06;;;-0.11;84.38
23016;BME280;11674;52.428;13.584;2023-11-25T22:33:11;100586.97;;;-0.16;84.41
23016;BME280;11674;52.428;13.584;2023-11-25T22:38:18;100598.41;;;-0.19;84.35
23016;BME280;11674;52.428;13.584;2023-11-25T22:43:25;100603.31;;;-0.21;84.25
23016;BME280;11674;52.428;13.584;2023-11-25T22:48:32;100605.22;;;-0.22;84.27
23016;BME280;11674;52.428;13.584;2023-11-25T22:53:39;100609.31;;;-0.24;84.39
23016;BME280;11674;52.428;13.584;2023-11-25T22:58:46;100613.44;;;-0.22;84.32
23016;BME280;11674;52.428;13.584;2023-11-25T23:03:53;100619.19;;;-0.23;84.29
23016;BME280;11674;52.428;13.584;2023-11-25T23:09:04;100620.84;;;-0.22;84.27
23016;BME280;11674;52.428;13.584;2023-11-25T23:14:10;100622.19;;;-0.25;84.36
23016;BME280;11674;52.428;13.584;2023-11-25T23:19:17;100628.50;;;-0.24;84.28
23016;BME280;11674;52.428;13.584;2023-11-25T23:24:24;100628.13;;;-0.28;84.30
23016;BME280;11674;52.428;13.584;2023-11-25T23:29:31;100637.44;;;-0.29;84.30
23016;BME280;11674;52.428;13.584;2023-11-25T23:34:38;100644.00;;;-0.30;84.37
23016;BME280;11674;52.428;13.584;2023-11-25T23:39:45;100641.50;;;-0.31;84.18
23016;BME280;11674;52.428;13.584;2023-11-25T23:44:52;100644.00;;;-0.30;84.46
23016;BME280;11674;52.428;13.584;2023-11-25T23:49:59;100645.66;;;-0.29;84.41
23016;BME280;11674;52.428;13.584;2023-11-25T23:55:06;100651.75;;;-0.27;84.49
